Time;durP1;ratioP1;P1;durP2;ratioP2;P2;SDS_P1;SDS_P2;PMS_P1;PMS_P2;Temp;Humidity;BMP_temperature;BMP_pressure;BME280_temperature;BME280_humidity;BME280_pressure;Samples;Min_cycle;Max_cycle;Signal;HPM_P1;HPM_P2
2022/01/08 00:01:01;;;;;;;0.30;0.30;;;1.00;99.90;;;;;;5116392;28;20425;-77
2022/01/08 00:03:28;;;;;;;0.30;0.27;;;1.00;99.90;;;;;;5116277;27;20800;-77
2022/01/08 00:05:56;;;;;;;0.30;0.30;;;1.10;99.90;;;;;;5115986;28;20902;-77
2022/01/08 00:08:24;;;;;;;0.30;0.30;;;1.20;99.90;;;;;;5116238;28;20509;-77
2022/01/08 00:10:52;;;;;;;0.40;0.40;;;1.30;99.90;;;;;;5116195;28;20856;-77
2022/01/08 00:13:18;;;;;;;0.30;0.30;;;1.30;99.90;;;;;;5116039;28;20875;-80
2022/01/08 00:15:45;;;;;;;0.30;0.30;;;1.30;99.90;;;;;;5115821;28;20482;-80
2022/01/08 00:18:13;;;;;;;0.30;0.30;;;1.40;99.90;;;;;;5116092;28;20427;-80
2022/01/08 00:20:40;;;;;;;0.30;0.30;;;1.50;99.90;;;;;;5115959;28;20454;-80
2022/01/08 00:23:07;;;;;;;0.30;0.30;;;1.50;99.90;;;;;;5115371;28;20989;-80
2022/01/08 00:25:34;;;;;;;0.33;0.33;;;1.50;99.90;;;;;;5115892;28;20446;-80
2022/01/08 00:28:01;;;;;;;0.30;0.20;;;1.50;99.90;;;;;;5115552;28;20446;-80
2022/01/08 00:30:30;;;;;;;0.30;0.20;;;1.50;99.90;;;;;;5115836;28;20439;-80
2022/01/08 00:32:58;;;;;;;0.30;0.27;;;1.60;99.90;;;;;;5115725;28;20487;-80
2022/01/08 00:35:27;;;;;;;0.67;0.67;;;1.70;99.90;;;;;;5115628;28;20478;-77
2022/01/08 00:37:53;;;;;;;0.30;0.30;;;1.70;99.90;;;;;;5115663;28;20446;-78
2022/01/08 00:40:20;;;;;;;0.30;0.30;;;1.70;99.90;;;;;;5115340;28;20938;-80
2022/01/08 00:42:47;;;;;;;0.30;0.30;;;1.70;99.90;;;;;;5115485;27;20471;-80
2022/01/08 00:45:14;;;;;;;0.30;0.20;;;1.70;99.90;;;;;;5115256;28;20938;-78
2022/01/08 00:47:40;;;;;;;0.30;0.20;;;1.70;99.90;;;;;;5115492;28;20439;-78
2022/01/08 00:50:08;;;;;;;0.30;0.30;;;1.70;99.90;;;;;;5115086;28;20958;-78
2022/01/08 00:52:36;;;;;;;0.30;0.30;;;1.70;99.90;;;;;;5115300;28;20447;-77
2022/01/08 00:55:03;;;;;;;0.30;0.30;;;1.70;99.90;;;;;;5115246;28;20482;-76
2022/01/08 00:57:30;;;;;;;0.30;0.30;;;1.70;99.90;;;;;;5115744;28;20450;-79
2022/01/08 00:59:57;;;;;;;0.30;0.30;;;1.70;99.90;;;;;;5115220;28;20454;-78
2022/01/08 01:02:24;;;;;;;0.30;0.20;;;1.70;99.90;;;;;;5115154;28;20449;-78
2022/01/08 01:04:50;;;;;;;0.30;0.20;;;1.80;99.90;;;;;;5115158;28;20446;-78
2022/01/08 01:07:17;;;;;;;0.57;0.57;;;1.80;99.90;;;;;;5115131;28;20447;-79
2022/01/08 01:09:45;;;;;;;0.30;0.30;;;1.80;99.90;;;;;;5114717;28;20969;-79
2022/01/08 01:12:13;;;;;;;1.90;0.47;;;1.80;99.90;;;;;;5115035;28;20449;-79
2022/01/08 01:14:40;;;;;;;0.30;0.30;;;1.80;99.90;;;;;;5115039;28;20497;-78
2022/01/08 01:17:06;;;;;;;0.30;0.30;;;1.80;99.90;;;;;;5114422;28;20852;-78
2022/01/08 01:19:35;;;;;;;0.30;0.30;;;1.80;99.90;;;;;;5114599;28;20447;-78
2022/01/08 01:22:02;;;;;;;0.30;0.30;;;1.80;99.90;;;;;;5114803;28;20451;-78
2022/01/08 01:24:30;;;;;;;0.30;0.30;;;1.80;99.90;;;;;;5114361;28;20463;-78
2022/01/08 01:27:22;;;;;;;0.30;0.20;;;1.80;99.90;;;;;;5114735;28;20449;-79
2022/01/08 01:29:55;;;;;;;0.30;0.30;;;1.80;99.90;;;;;;5114376;28;20435;-79
2022/01/08 01:41:18;;;;;;;0.40;0.40;;;1.80;99.90;;;;;;5101317;28;20521;-79
2022/01/08 01:49:14;;;;;;;0.30;0.30;;;1.80;99.90;;;;;;5114731;28;20752;-80
2022/01/08 01:51:41;;;;;;;0.30;0.30;;;1.80;99.90;;;;;;5114278;28;20443;-79
2022/01/08 01:54:08;;;;;;;0.30;0.20;;;1.90;99.90;;;;;;5114120;28;20442;-79
2022/01/08 01:56:35;;;;;;;0.30;0.30;;;1.90;99.90;;;;;;5114192;28;20443;-80
2022/01/08 01:59:03;;;;;;;0.30;0.20;;;1.90;99.90;;;;;;5114168;28;20413;-79
2022/01/08 02:01:30;;;;;;;0.30;0.30;;;1.90;99.90;;;;;;5114110;28;20794;-79
2022/01/08 02:03:57;;;;;;;0.30;0.30;;;1.90;99.90;;;;;;5113794;28;20447;-79
2022/01/08 02:06:24;;;;;;;0.30;0.30;;;1.90;99.90;;;;;;5115190;28;20435;-79
2022/01/08 02:08:51;;;;;;;0.30;0.30;;;1.80;99.90;;;;;;5115791;28;20449;-79
2022/01/08 02:11:20;;;;;;;0.30;0.30;;;1.90;99.90;;;;;;5114091;28;20425;-79
2022/01/08 02:13:47;;;;;;;0.30;0.30;;;1.80;99.90;;;;;;5113997;28;20520;-80
2022/01/08 02:16:17;;;;;;;0.30;0.30;;;1.90;99.90;;;;;;5113561;28;20466;-79
2022/01/08 02:18:45;;;;;;;0.30;0.20;;;1.90;99.90;;;;;;5113977;28;20449;-77
2022/01/08 02:21:15;;;;;;;0.30;0.20;;;1.90;99.90;;;;;;5113890;28;20435;-79
2022/01/08 02:23:42;;;;;;;0.30;0.30;;;1.90;99.90;;;;;;5113754;28;20993;-79
2022/01/08 02:26:11;;;;;;;0.30;0.30;;;2.00;99.90;;;;;;5113686;28;20945;-79
2022/01/08 02:28:39;;;;;;;0.30;0.20;;;2.00;99.90;;;;;;5114103;28;20458;-81
2022/01/08 02:31:06;;;;;;;0.30;0.20;;;2.00;99.90;;;;;;5113497;28;20915;-80
2022/01/08 02:33:33;;;;;;;0.30;0.30;;;2.10;99.90;;;;;;5113961;28;20475;-79
2022/01/08 02:36:05;;;;;;;0.30;0.27;;;2.10;99.90;;;;;;5113594;28;20989;-78
2022/01/08 02:38:33;;;;;;;0.30;0.20;;;2.00;99.90;;;;;;5113782;28;20492;-78
2022/01/08 02:41:03;;;;;;;0.30;0.30;;;2.00;99.90;;;;;;5113710;28;20449;-77
2022/01/08 02:43:33;;;;;;;0.30;0.20;;;2.10;99.90;;;;;;5113584;28;20462;-78
2022/01/08 02:46:00;;;;;;;0.30;0.30;;;2.00;99.90;;;;;;5117076;28;20949;-78
2022/01/08 02:48:27;;;;;;;0.30;0.30;;;2.00;99.90;;;;;;5117509;28;20447;-79
2022/01/08 02:50:53;;;;;;;0.30;0.30;;;1.90;99.90;;;;;;5117756;28;20421;-79
2022/01/08 02:53:20;;;;;;;0.50;0.50;;;1.90;99.90;;;;;;5117712;28;20470;-80
2022/01/08 02:55:49;;;;;;;0.30;0.20;;;1.90;99.90;;;;;;5117560;27;20482;-80
2022/01/08 02:58:16;;;;;;;0.40;0.40;;;1.90;99.90;;;;;;5117618;28;20442;-79
2022/01/08 03:00:42;;;;;;;0.90;0.40;;;1.80;99.90;;;;;;5117613;28;20450;-79
2022/01/08 03:03:09;;;;;;;0.30;0.27;;;1.70;99.90;;;;;;5117507;28;20441;-79
2022/01/08 03:05:36;;;;;;;0.40;0.40;;;1.70;99.90;;;;;;5117450;28;20768;-78
2022/01/08 03:08:03;;;;;;;0.30;0.30;;;1.80;99.90;;;;;;5117145;27;20447;-78
2022/01/08 03:10:29;;;;;;;0.47;0.47;;;1.80;99.90;;;;;;5117094;28;20453;-78
2022/01/08 03:12:57;;;;;;;0.30;0.30;;;1.70;99.90;;;;;;5117273;28;20463;-78
2022/01/08 03:15:25;;;;;;;0.30;0.20;;;1.70;99.90;;;;;;5117108;28;20479;-79
2022/01/08 03:17:51;;;;;;;0.30;0.30;;;1.60;99.90;;;;;;5117409;28;20480;-79
2022/01/08 03:20:18;;;;;;;0.30;0.30;;;1.50;99.90;;;;;;5117217;28;20450;-79
2022/01/08 03:22:47;;;;;;;0.93;0.80;;;1.50;99.90;;;;;;5116790;28;20520;-80
2022/01/08 03:25:14;;;;;;;0.40;0.40;;;1.60;99.90;;;;;;5117391;28;20435;-80
2022/01/08 03:27:42;;;;;;;0.33;0.33;;;1.60;99.90;;;;;;5117035;28;20456;-80
2022/01/08 03:30:13;;;;;;;0.70;0.43;;;1.60;99.90;;;;;;5116787;28;20447;-79
2022/01/08 03:32:40;;;;;;;0.30;0.30;;;1.50;99.90;;;;;;5116953;28;20459;-82
2022/01/08 03:35:08;;;;;;;0.30;0.30;;;1.50;99.90;;;;;;5116842;28;20818;-80
2022/01/08 03:37:35;;;;;;;0.47;0.47;;;1.50;99.90;;;;;;5116998;28;20848;-80
2022/01/08 03:40:02;;;;;;;0.30;0.30;;;1.50;99.90;;;;;;5116837;28;20422;-80
2022/01/08 03:42:28;;;;;;;0.30;0.30;;;1.50;99.90;;;;;;5116554;28;20984;-81
2022/01/08 03:44:55;;;;;;;0.30;0.30;;;1.40;99.90;;;;;;5116459;28;20451;-80
2022/01/08 03:47:31;;;;;;;0.30;0.20;;;1.40;99.90;;;;;;5116755;28;20425;-79
2022/01/08 03:50:00;;;;;;;0.30;0.30;;;1.40;99.90;;;;;;5116715;28;20546;-79
2022/01/08 03:52:27;;;;;;;0.30;0.30;;;1.40;99.90;;;;;;5116197;28;20422;-79
2022/01/08 03:54:54;;;;;;;0.30;0.30;;;1.40;99.90;;;;;;5116149;27;20819;-79
2022/01/08 03:57:20;;;;;;;0.30;0.30;;;1.40;99.90;;;;;;5116025;28;20446;-79
2022/01/08 03:59:48;;;;;;;0.30;0.30;;;1.40;99.90;;;;;;5116446;28;20446;-79
2022/01/08 04:02:15;;;;;;;0.30;0.30;;;1.40;99.90;;;;;;5116416;28;20447;-79
2022/01/08 04:04:43;;;;;;;0.30;0.30;;;1.50;99.90;;;;;;5116349;28;20429;-79
2022/01/08 04:07:10;;;;;;;0.30;0.30;;;1.50;99.90;;;;;;5115958;27;20980;-79
2022/01/08 04:09:37;;;;;;;0.30;0.30;;;1.50;99.90;;;;;;5116490;28;20447;-79
2022/01/08 04:12:06;;;;;;;0.30;0.30;;;1.50;99.90;;;;;;5116199;28;20443;-80
2022/01/08 04:14:47;;;;;;;0.30;0.20;;;1.50;99.90;;;;;;5116143;28;20536;-80
2022/01/08 04:17:16;;;;;;;0.37;0.37;;;1.60;99.90;;;;;;5115613;28;20564;-80
2022/01/08 04:19:44;;;;;;;1.00;0.73;;;1.60;99.90;;;;;;5116021;28;20461;-80
2022/01/08 04:22:12;;;;;;;0.30;0.30;;;1.60;99.90;;;;;;5115980;28;20455;-80
2022/01/08 04:24:39;;;;;;;0.30;0.20;;;1.60;99.90;;;;;;5115897;27;20466;-80
2022/01/08 04:27:06;;;;;;;0.30;0.20;;;1.60;99.90;;;;;;5115891;27;20447;-80
2022/01/08 04:29:33;;;;;;;0.30;0.30;;;1.60;99.90;;;;;;5115833;28;20829;-80
2022/01/08 04:31:59;;;;;;;0.30;0.30;;;1.60;99.90;;;;;;5115843;28;20450;-80
2022/01/08 04:34:27;;;;;;;0.30;0.30;;;1.60;99.90;;;;;;5115414;28;20989;-80
2022/01/08 04:36:55;;;;;;;0.30;0.30;;;1.60;99.90;;;;;;5115621;28;20475;-80
2022/01/08 04:39:22;;;;;;;0.30;0.30;;;1.50;99.90;;;;;;5115653;28;20443;-80
2022/01/08 04:41:49;;;;;;;0.30;0.30;;;1.40;99.90;;;;;;5115649;28;20439;-80
2022/01/08 04:44:16;;;;;;;0.30;0.30;;;1.40;99.90;;;;;;5115577;28;20474;-81
2022/01/08 04:46:42;;;;;;;0.30;0.30;;;1.40;99.90;;;;;;5115249;28;20916;-81
2022/01/08 04:49:09;;;;;;;0.30;0.30;;;1.40;99.90;;;;;;5115563;28;20443;-80
2022/01/08 04:51:36;;;;;;;0.77;0.77;;;1.30;99.90;;;;;;5115574;28;20447;-82
2022/01/08 04:54:04;;;;;;;0.30;0.30;;;1.20;99.90;;;;;;5115842;28;20842;-82
2022/01/08 04:56:35;;;;;;;0.30;0.30;;;1.20;99.90;;;;;;5118969;28;20461;-83
2022/01/08 04:59:02;;;;;;;0.33;0.33;;;1.20;99.90;;;;;;5115672;28;20465;-84
2022/01/08 05:01:32;;;;;;;0.30;0.30;;;1.10;99.90;;;;;;5115214;28;20938;-85
2022/01/08 05:04:00;;;;;;;0.30;0.20;;;1.10;99.90;;;;;;5115068;28;20566;-85
2022/01/08 05:06:31;;;;;;;0.30;0.20;;;1.10;99.90;;;;;;5115377;28;20442;-84
2022/01/08 05:12:54;;;;;;;;;;;;;;;;;;;;;
2022/01/08 05:15:27;;;;;;;0.30;0.30;;;1.10;99.90;;;;;;5079890;28;20449;-84
2022/01/08 05:18:10;;;;;;;0.30;0.30;;;1.10;99.90;;;;;;5115131;28;20408;-84
2022/01/08 05:20:55;;;;;;;0.30;0.30;;;1.10;99.90;;;;;;5114440;28;20991;-84
2022/01/08 05:23:22;;;;;;;0.30;0.30;;;1.10;99.90;;;;;;5114507;28;20515;-84
2022/01/08 05:25:50;;;;;;;0.30;0.30;;;1.20;99.90;;;;;;5114560;28;20431;-84
2022/01/08 05:28:24;;;;;;;0.30;0.20;;;1.20;99.90;;;;;;5114417;28;20443;-80
2022/01/08 05:31:12;;;;;;;0.30;0.30;;;1.20;99.90;;;;;;5114698;28;20423;-80
2022/01/08 05:33:39;;;;;;;0.30;0.30;;;1.20;99.90;;;;;;5114431;28;20891;-80
2022/01/08 05:36:16;;;;;;;0.30;0.30;;;1.20;99.90;;;;;;5114537;28;20483;-82
2022/01/08 05:38:45;;;;;;;0.30;0.30;;;1.20;99.90;;;;;;5114376;27;20795;-79
2022/01/08 05:41:12;;;;;;;0.30;0.30;;;1.20;99.90;;;;;;5114145;28;20916;-80
2022/01/08 05:43:41;;;;;;;0.30;0.30;;;1.20;99.90;;;;;;5114410;28;20463;-80
2022/01/08 05:46:07;;;;;;;0.30;0.23;;;1.30;99.90;;;;;;5114616;28;20426;-81
2022/01/08 05:48:34;;;;;;;0.30;0.30;;;1.30;99.90;;;;;;5114385;28;20417;-81
2022/01/08 05:51:01;;;;;;;0.30;0.30;;;1.30;99.90;;;;;;5114297;28;20990;-81
2022/01/08 05:53:28;;;;;;;0.30;0.30;;;1.30;99.90;;;;;;5113940;28;20967;-81
2022/01/08 05:55:54;;;;;;;0.30;0.30;;;1.30;99.90;;;;;;5114544;28;20475;-81
2022/01/08 05:58:21;;;;;;;0.30;0.30;;;1.40;99.90;;;;;;5113930;28;20861;-80
2022/01/08 06:00:49;;;;;;;0.30;0.30;;;1.40;99.90;;;;;;5114196;28;20446;-79
2022/01/08 06:03:16;;;;;;;0.30;0.30;;;1.50;99.90;;;;;;5113787;28;20459;-78
2022/01/08 06:05:43;;;;;;;0.30;0.20;;;1.50;99.90;;;;;;5113783;28;20792;-78
2022/01/08 06:08:10;;;;;;;0.30;0.30;;;1.50;99.90;;;;;;5113760;28;20936;-78
2022/01/08 06:10:37;;;;;;;0.30;0.20;;;1.60;99.90;;;;;;5114091;28;20454;-82
2022/01/08 06:13:04;;;;;;;0.30;0.30;;;1.50;99.90;;;;;;5113667;28;20807;-82
2022/01/08 06:15:30;;;;;;;0.30;0.30;;;1.50;99.90;;;;;;5113692;28;20422;-79
2022/01/08 06:17:58;;;;;;;0.30;0.27;;;1.40;99.90;;;;;;5114015;28;20443;-78
2022/01/08 06:20:26;;;;;;;0.30;0.27;;;1.40;99.90;;;;;;5113587;28;20455;-78
2022/01/08 06:22:53;;;;;;;0.30;0.30;;;1.40;99.90;;;;;;5113834;28;20479;-78
2022/01/08 06:25:19;;;;;;;0.50;0.50;;;1.30;99.90;;;;;;5113840;28;20458;-82
2022/01/08 06:27:46;;;;;;;0.30;0.30;;;1.20;99.90;;;;;;5113896;28;20439;-81
2022/01/08 06:30:13;;;;;;;0.30;0.30;;;1.20;99.90;;;;;;5113810;28;20827;-80
2022/01/08 06:32:39;;;;;;;0.30;0.30;;;1.20;99.90;;;;;;5113759;28;20537;-80
2022/01/08 06:35:08;;;;;;;0.30;0.30;;;1.20;99.90;;;;;;5113522;28;20450;-78
2022/01/08 06:37:35;;;;;;;0.30;0.30;;;1.30;99.90;;;;;;5113401;28;21028;-78
2022/01/08 06:40:01;;;;;;;0.30;0.20;;;1.30;99.90;;;;;;5113764;28;20451;-79
2022/01/08 06:42:28;;;;;;;0.30;0.30;;;1.30;99.90;;;;;;5113642;28;20952;-79
2022/01/08 06:44:55;;;;;;;0.30;0.30;;;1.20;99.90;;;;;;5113401;28;20447;-79
2022/01/08 06:47:21;;;;;;;0.30;0.20;;;1.20;99.90;;;;;;5113817;28;20418;-79
2022/01/08 06:49:48;;;;;;;0.30;0.30;;;1.20;99.90;;;;;;5114521;28;20429;-79
2022/01/08 06:52:16;;;;;;;0.30;0.30;;;1.20;99.90;;;;;;5113634;28;20446;-79
2022/01/08 06:54:43;;;;;;;0.30;0.30;;;1.20;99.90;;;;;;5113640;28;20439;-79
2022/01/08 06:57:10;;;;;;;0.30;0.30;;;1.20;99.90;;;;;;5113502;28;20477;-80
2022/01/08 06:59:36;;;;;;;0.30;0.30;;;1.10;99.90;;;;;;5113582;28;20447;-79
2022/01/08 07:02:03;;;;;;;0.30;0.30;;;1.10;99.90;;;;;;5113430;28;20439;-80
2022/01/08 07:04:30;;;;;;;0.30;0.30;;;1.10;99.90;;;;;;5113492;28;20486;-80
2022/01/08 07:06:58;;;;;;;0.30;0.30;;;1.10;99.90;;;;;;5113523;28;20439;-80
2022/01/08 07:09:27;;;;;;;0.30;0.30;;;1.20;99.90;;;;;;5113508;28;20418;-80
2022/01/08 07:11:54;;;;;;;0.30;0.30;;;1.20;99.90;;;;;;5113133;28;20417;-79
2022/01/08 07:14:21;;;;;;;0.30;0.30;;;1.10;99.90;;;;;;5115457;28;20459;-80
2022/01/08 07:16:48;;;;;;;0.30;0.30;;;1.00;99.90;;;;;;5113802;28;20501;-83
2022/01/08 07:19:15;;;;;;;0.30;0.30;;;1.10;99.90;;;;;;5113075;28;20418;-79
2022/01/08 07:21:42;;;;;;;0.40;0.40;;;1.10;99.90;;;;;;5113372;28;20425;-79
2022/01/08 07:24:09;;;;;;;0.30;0.30;;;1.10;99.90;;;;;;5114162;28;20780;-80
2022/01/08 07:26:37;;;;;;;0.30;0.30;;;1.20;99.90;;;;;;5113378;28;20521;-80
2022/01/08 07:29:04;;;;;;;0.30;0.30;;;1.20;99.90;;;;;;5113265;28;20810;-80
2022/01/08 07:31:30;;;;;;;0.30;0.30;;;1.20;99.90;;;;;;5113929;28;20941;-80
2022/01/08 07:33:57;;;;;;;0.30;0.30;;;1.20;99.90;;;;;;5117235;28;20466;-80
2022/01/08 07:36:24;;;;;;;0.30;0.30;;;1.20;99.90;;;;;;5116940;28;20479;-80
2022/01/08 07:38:51;;;;;;;0.30;0.30;;;1.20;99.90;;;;;;5116616;28;20953;-80
2022/01/08 07:41:18;;;;;;;0.30;0.30;;;1.20;99.90;;;;;;5116949;27;20439;-82
2022/01/08 07:43:46;;;;;;;0.30;0.20;;;1.10;99.90;;;;;;5116386;28;20458;-80
2022/01/08 07:46:13;;;;;;;0.30;0.30;;;1.10;99.90;;;;;;5116298;28;20454;-80
2022/01/08 07:48:40;;;;;;;0.30;0.30;;;1.00;99.90;;;;;;5116265;28;20945;-80
2022/01/08 07:51:07;;;;;;;0.30;0.20;;;1.00;99.90;;;;;;5116762;28;20538;-80
2022/01/08 07:53:34;;;;;;;0.30;0.30;;;1.00;99.90;;;;;;5116128;28;20974;-80
2022/01/08 07:56:01;;;;;;;0.30;0.30;;;0.90;99.90;;;;;;5116421;28;20458;-80
2022/01/08 07:58:27;;;;;;;0.30;0.30;;;0.90;99.90;;;;;;5116423;28;20398;-79
2022/01/08 08:00:55;;;;;;;0.30;0.30;;;0.90;99.90;;;;;;5115928;27;20942;-78
2022/01/08 08:03:22;;;;;;;0.30;0.30;;;0.80;99.90;;;;;;5116099;27;20471;-79
2022/01/08 08:05:49;;;;;;;0.30;0.30;;;0.80;99.90;;;;;;5116073;28;20863;-78
2022/01/08 08:08:17;;;;;;;0.30;0.30;;;0.90;99.90;;;;;;5115805;28;20925;-79
2022/01/08 08:10:44;;;;;;;0.30;0.20;;;1.00;99.90;;;;;;5116121;28;20447;-79
2022/01/08 08:13:11;;;;;;;0.30;0.30;;;1.00;99.90;;;;;;5116309;28;20467;-79
2022/01/08 08:44:42;;;;;;;0.30;0.23;;;1.50;99.90;;;;;;4898274;29;20495;-81
2022/01/08 08:49:45;;;;;;;0.30;0.30;;;1.60;99.90;;;;;;4973609;23;20498;-79
2022/01/08 08:52:11;;;;;;;0.30;0.30;;;1.80;99.90;;;;;;4937645;29;20793;-81
2022/01/08 08:54:39;;;;;;;0.30;0.30;;;1.90;99.90;;;;;;4918710;29;21010;-81
2022/01/08 08:57:06;;;;;;;0.30;0.30;;;1.90;99.90;;;;;;4918876;29;20503;-81
2022/01/08 08:59:33;;;;;;;0.30;0.30;;;2.00;99.90;;;;;;4918926;29;20857;-81
2022/01/08 09:02:01;;;;;;;0.30;0.30;;;2.10;99.90;;;;;;4919451;29;20448;-81
2022/01/08 09:04:28;;;;;;;0.30;0.27;;;2.20;99.90;;;;;;4918034;29;20992;-80
2022/01/08 09:06:57;;;;;;;0.30;0.30;;;2.20;99.90;;;;;;4918318;29;20436;-80
2022/01/08 09:09:23;;;;;;;0.30;0.30;;;2.10;99.90;;;;;;4918325;29;20440;-81
2022/01/08 09:11:50;;;;;;;0.30;0.20;;;2.10;99.90;;;;;;4918300;29;20441;-80
2022/01/08 09:14:17;;;;;;;0.40;0.40;;;2.10;99.90;;;;;;4917946;29;20483;-80
2022/01/08 09:16:47;;;;;;;0.30;0.30;;;2.20;99.90;;;;;;4918076;29;20480;-80
2022/01/08 09:19:16;;;;;;;0.30;0.30;;;2.20;99.90;;;;;;4918054;29;20439;-80
2022/01/08 09:21:43;;;;;;;0.30;0.23;;;2.20;99.90;;;;;;4918336;29;20436;-79
2022/01/08 09:24:10;;;;;;;0.30;0.30;;;2.10;99.90;;;;;;4917812;29;21009;-79
2022/01/08 09:26:38;;;;;;;0.30;0.30;;;2.10;99.90;;;;;;4917977;29;20447;-79
2022/01/08 09:29:04;;;;;;;0.30;0.30;;;2.10;99.90;;;;;;4917957;29;20447;-79
2022/01/08 09:31:32;;;;;;;0.30;0.20;;;2.20;99.90;;;;;;4917843;29;20459;-79
2022/01/08 09:33:59;;;;;;;0.30;0.30;;;2.30;99.90;;;;;;4917943;29;20480;-79
2022/01/08 09:36:27;;;;;;;0.30;0.20;;;2.30;99.90;;;;;;4917793;29;20436;-79
2022/01/08 09:38:54;;;;;;;0.60;0.60;;;2.60;99.90;;;;;;4917554;29;20839;-79
2022/01/08 09:41:20;;;;;;;0.30;0.30;;;2.70;99.90;;;;;;4917780;29;20443;-78
2022/01/08 09:43:48;;;;;;;0.30;0.27;;;2.70;99.90;;;;;;4917575;29;20480;-80
2022/01/08 09:46:15;;;;;;;0.30;0.30;;;2.60;99.90;;;;;;4917974;29;20454;-79
2022/01/08 09:48:42;;;;;;;0.30;0.20;;;2.60;99.90;;;;;;4917341;29;20506;-79
2022/01/08 09:51:09;;;;;;;0.30;0.30;;;2.50;99.90;;;;;;4917578;29;20456;-79
2022/01/08 09:53:37;;;;;;;0.30;0.30;;;2.50;99.90;;;;;;4917309;29;20475;-79
2022/01/08 09:56:05;;;;;;;0.43;0.43;;;2.50;99.90;;;;;;4917400;29;20447;-79
2022/01/08 09:58:32;;;;;;;0.30;0.30;;;2.40;99.90;;;;;;4917125;29;20472;-78
2022/01/08 10:00:59;;;;;;;0.50;0.50;;;2.40;99.90;;;;;;4917421;29;20439;-79
2022/01/08 10:03:31;;;;;;;0.30;0.30;;;2.30;99.90;;;;;;4917065;29;20835;-79
2022/01/08 10:05:58;;;;;;;0.30;0.30;;;2.30;99.90;;;;;;4917314;29;20539;-79
2022/01/08 10:08:27;;;;;;;0.30;0.30;;;2.20;99.90;;;;;;5320264;23;20531;-76
2022/01/08 10:11:00;;;;;;;0.30;0.30;;;2.20;99.90;;;;;;5358642;23;20495;-79
2022/01/08 10:13:29;;;;;;;0.63;0.63;;;2.10;99.90;;;;;;4897705;29;20469;-81
2022/01/08 10:18:43;;;;;;;0.40;0.40;;;2.10;99.90;;;;;;4898441;29;20941;-80
2022/01/08 10:21:18;;;;;;;0.30;0.30;;;2.10;99.90;;;;;;4898979;29;20441;-79
2022/01/08 10:23:48;;;;;;;0.30;0.30;;;2.10;99.90;;;;;;4898257;29;20476;-83
2022/01/08 10:26:17;;;;;;;0.30;0.30;;;2.20;99.90;;;;;;4898086;29;20441;-82
2022/01/08 10:28:49;;;;;;;0.30;0.30;;;2.20;99.90;;;;;;4898318;29;20459;-80
2022/01/08 10:31:19;;;;;;;0.30;0.30;;;2.20;99.90;;;;;;4898330;29;20444;-81
2022/01/08 10:33:49;;;;;;;0.30;0.30;;;2.20;99.90;;;;;;4898265;29;20460;-83
2022/01/08 10:36:21;;;;;;;0.30;0.30;;;2.30;99.90;;;;;;4898240;29;20844;-82
2022/01/08 10:38:51;;;;;;;0.30;0.30;;;2.20;99.90;;;;;;4898396;29;20500;-82
2022/01/08 10:41:20;;;;;;;0.30;0.30;;;2.30;99.90;;;;;;4898250;29;20484;-84
2022/01/08 10:43:47;;;;;;;0.30;0.20;;;2.40;99.90;;;;;;4897829;29;20996;-82
2022/01/08 10:46:16;;;;;;;0.30;0.30;;;2.40;99.90;;;;;;4898136;29;20461;-79
2022/01/08 10:48:45;;;;;;;0.30;0.30;;;2.50;99.90;;;;;;4897814;29;20945;-81
2022/01/08 10:51:16;;;;;;;0.30;0.30;;;2.50;99.90;;;;;;4898114;29;20465;-83
2022/01/08 10:53:59;;;;;;;0.30;0.30;;;2.50;99.90;;;;;;4898133;29;20477;-84
2022/01/08 10:56:29;;;;;;;0.30;0.30;;;2.60;99.90;;;;;;4898090;29;20423;-85
2022/01/08 10:59:01;;;;;;;0.30;0.30;;;2.70;99.90;;;;;;4898131;29;20484;-84
2022/01/08 11:01:48;;;;;;;0.30;0.30;;;2.70;99.90;;;;;;4897669;29;20980;-84
2022/01/08 11:04:16;;;;;;;2.10;1.30;;;2.70;99.90;;;;;;4898086;29;20480;-85
2022/01/08 11:06:52;;;;;;;0.30;0.30;;;2.70;99.90;;;;;;4899317;29;20452;-85
2022/01/08 11:09:19;;;;;;;0.30;0.20;;;2.70;99.90;;;;;;4901325;29;20945;-84
2022/01/08 11:11:49;;;;;;;0.30;0.30;;;2.70;99.90;;;;;;4901275;29;20506;-84
2022/01/08 11:14:34;;;;;;;0.30;0.30;;;2.80;99.90;;;;;;4901304;29;21003;-85
2022/01/08 11:17:01;;;;;;;0.30;0.20;;;2.80;99.90;;;;;;4901629;29;20461;-87
2022/01/08 11:19:28;;;;;;;0.30;0.20;;;2.90;99.90;;;;;;4901636;29;20448;-81
2022/01/08 11:21:56;;;;;;;0.30;0.30;;;2.90;99.90;;;;;;4901448;29;20463;-85
2022/01/08 11:24:25;;;;;;;0.30;0.30;;;2.90;99.90;;;;;;4901267;29;20496;-85
2022/01/08 11:26:54;;;;;;;0.30;0.30;;;2.90;99.90;;;;;;4901108;29;20465;-83
2022/01/08 11:29:25;;;;;;;0.30;0.30;;;2.80;99.90;;;;;;4901090;29;20457;-85
2022/01/08 11:31:57;;;;;;;0.30;0.30;;;2.90;99.90;;;;;;5332965;23;20504;-83
2022/01/08 11:37:00;;;;;;;0.30;0.20;;;3.10;99.90;;;;;;5628384;23;20496;-88
2022/01/08 11:39:28;;;;;;;0.30;0.20;;;3.10;99.90;;;;;;4908561;29;20488;-90
2022/01/08 11:41:57;;;;;;;0.30;0.30;;;3.10;99.90;;;;;;4902620;29;20447;-89
2022/01/08 11:44:26;;;;;;;0.30;0.30;;;3.00;99.90;;;;;;4900784;29;20476;-88
2022/01/08 11:46:53;;;;;;;0.30;0.20;;;3.00;99.90;;;;;;4900019;29;20425;-89
2022/01/08 11:49:21;;;;;;;0.30;0.20;;;3.10;99.90;;;;;;4900085;29;20920;-89
2022/01/08 11:51:48;;;;;;;0.30;0.30;;;3.10;99.90;;;;;;4900437;29;20426;-89
2022/01/08 11:54:14;;;;;;;0.30;0.30;;;3.00;99.90;;;;;;4900185;29;20843;-88
2022/01/08 11:56:42;;;;;;;0.30;0.30;;;2.90;99.90;;;;;;4900234;29;20433;-87
2022/01/08 11:59:12;;;;;;;0.30;0.20;;;2.80;99.90;;;;;;4900115;29;20484;-88
2022/01/08 12:01:41;;;;;;;0.30;0.20;;;2.80;99.90;;;;;;4899978;29;20945;-89
2022/01/08 12:04:24;;;;;;;0.30;0.30;;;2.80;99.90;;;;;;4900998;29;20457;-89
2022/01/08 12:06:50;;;;;;;0.30;0.20;;;2.70;99.90;;;;;;4900820;29;20464;-89
2022/01/08 12:09:22;;;;;;;0.77;0.77;;;2.60;99.90;;;;;;4900449;29;20521;-90
2022/01/08 12:12:03;;;;;;;0.30;0.27;;;2.60;99.90;;;;;;4901218;29;20813;-90
2022/01/08 12:14:45;;;;;;;0.30;0.30;;;2.60;99.90;;;;;;4900647;29;20555;-88
2022/01/08 12:17:18;;;;;;;0.30;0.30;;;2.60;99.90;;;;;;4900757;29;20509;-88
2022/01/08 12:19:47;;;;;;;0.30;0.30;;;2.40;99.90;;;;;;4888641;29;20529;-90
2022/01/08 12:22:31;;;;;;;0.30;0.20;;;2.50;99.90;;;;;;4881870;29;20529;-90
2022/01/08 12:25:00;;;;;;;0.30;0.20;;;2.40;99.90;;;;;;4881595;29;20449;-88
2022/01/08 12:27:45;;;;;;;0.30;0.30;;;2.50;99.90;;;;;;4881934;29;20946;-88
2022/01/08 12:30:38;;;;;;;0.30;0.20;;;2.40;99.90;;;;;;4882442;29;20464;-88
2022/01/08 12:33:20;;;;;;;0.30;0.30;;;2.40;99.90;;;;;;4881868;29;20469;-88
2022/01/08 12:35:47;;;;;;;0.30;0.30;;;2.40;99.90;;;;;;4881721;29;20458;-89
2022/01/08 12:38:31;;;;;;;0.30;0.30;;;2.50;99.90;;;;;;4897016;29;20850;-89
2022/01/08 12:40:59;;;;;;;0.40;0.33;;;2.50;99.90;;;;;;4900245;29;20561;-89
2022/01/08 12:43:31;;;;;;;0.30;0.30;;;2.60;99.90;;;;;;4900073;29;20476;-88
2022/01/08 12:46:20;;;;;;;0.30;0.20;;;2.60;99.90;;;;;;4900130;29;20422;-88
2022/01/08 12:49:10;;;;;;;0.30;0.20;;;2.70;99.90;;;;;;4900197;29;20508;-89
2022/01/08 12:52:05;;;;;;;0.30;0.20;;;2.70;99.90;;;;;;4900149;29;20465;-89
2022/01/08 12:54:33;;;;;;;0.30;0.30;;;2.70;99.90;;;;;;4893332;29;20477;-88
2022/01/08 12:57:05;;;;;;;0.30;0.30;;;2.60;99.90;;;;;;4899928;29;20417;-91
2022/01/08 12:59:34;;;;;;;0.30;0.30;;;2.60;99.90;;;;;;4899706;29;20532;-88
2022/01/08 13:02:06;;;;;;;0.53;0.53;;;2.50;99.90;;;;;;4900077;29;20472;-89
2022/01/08 13:04:33;;;;;;;0.30;0.30;;;2.40;99.90;;;;;;4899814;29;20457;-89
2022/01/08 13:06:59;;;;;;;0.30;0.30;;;2.50;99.90;;;;;;4900035;29;20441;-89
2022/01/08 13:09:27;;;;;;;0.30;0.30;;;2.50;99.90;;;;;;4900146;29;20823;-89
2022/01/08 13:11:54;;;;;;;0.30;0.30;;;2.40;99.90;;;;;;4901324;29;20824;-90
2022/01/08 13:14:24;;;;;;;0.30;0.30;;;2.50;99.90;;;;;;4899765;29;21008;-89
2022/01/08 13:16:53;;;;;;;0.30;0.30;;;2.40;99.90;;;;;;4899517;29;20825;-89
2022/01/08 13:19:23;;;;;;;0.30;0.30;;;2.40;99.90;;;;;;4899532;29;20485;-90
2022/01/08 13:21:52;;;;;;;0.30;0.30;;;2.40;99.90;;;;;;4899589;29;20926;-88
2022/01/08 13:24:21;;;;;;;0.30;0.30;;;2.50;99.90;;;;;;4899721;29;20881;-89
2022/01/08 13:26:51;;;;;;;0.30;0.30;;;2.50;99.90;;;;;;4899497;29;20828;-88
2022/01/08 13:29:21;;;;;;;0.30;0.30;;;2.50;99.90;;;;;;4898588;29;20461;-89
2022/01/08 13:31:51;;;;;;;0.30;0.30;;;2.60;99.90;;;;;;4899623;29;20461;-90
2022/01/08 13:34:18;;;;;;;0.30;0.30;;;2.60;99.90;;;;;;4899272;29;20442;-87
2022/01/08 13:36:55;;;;;;;0.30;0.30;;;2.70;99.90;;;;;;4899378;29;20451;-89
2022/01/08 13:39:27;;;;;;;0.30;0.30;;;2.70;99.90;;;;;;4899505;29;20458;-91
2022/01/08 13:42:15;;;;;;;0.30;0.30;;;2.70;99.90;;;;;;4899344;29;20811;-90
2022/01/08 13:44:44;;;;;;;0.30;0.30;;;2.80;99.90;;;;;;4899442;29;20455;-90
2022/01/08 13:47:19;;;;;;;0.30;0.30;;;2.70;99.90;;;;;;4899541;29;20500;-90
2022/01/08 13:49:47;;;;;;;0.30;0.30;;;2.70;99.90;;;;;;4899377;29;20461;-88
2022/01/08 13:52:21;;;;;;;0.30;0.30;;;2.60;99.90;;;;;;4900220;29;20826;-90
2022/01/08 13:54:49;;;;;;;0.30;0.20;;;2.60;99.90;;;;;;4900061;29;20494;-91
2022/01/08 13:57:19;;;;;;;0.30;0.20;;;2.70;99.90;;;;;;4899334;29;21040;-89
2022/01/08 13:59:46;;;;;;;0.30;0.30;;;2.70;99.90;;;;;;4899167;29;20984;-89
2022/01/08 14:02:13;;;;;;;0.30;0.30;;;2.70;99.90;;;;;;4899423;29;20465;-89